sensor_id;sensor_type;location;lat;lon;timestamp;P1;durP1;ratioP1;P2;durP2;ratioP2
11931;SDS011;6025;51.368;6.788;2023-05-10T00:01:06;18.42;;;13.95;;
11931;SDS011;6025;51.368;6.788;2023-05-10T00:05:58;18.40;;;12.88;;
11931;SDS011;6025;51.368;6.788;2023-05-10T00:10:49;16.73;;;11.75;;
11931;SDS011;6025;51.368;6.788;2023-05-10T00:15:41;15.13;;;11.70;;
11931;SDS011;6025;51.368;6.788;2023-05-10T00:20:34;14.65;;;10.93;;
11931;SDS011;6025;51.368;6.788;2023-05-10T00:25:25;14.63;;;11.43;;
11931;SDS011;6025;51.368;6.788;2023-05-10T00:30:17;15.15;;;12.38;;
11931;SDS011;6025;51.368;6.788;2023-05-10T00:35:09;18.45;;;13.32;;
11931;SDS011;6025;51.368;6.788;2023-05-10T00:40:02;20.27;;;13.77;;
11931;SDS011;6025;51.368;6.788;2023-05-10T00:44:54;19.52;;;14.45;;
11931;SDS011;6025;51.368;6.788;2023-05-10T00:49:46;18.48;;;14.88;;
11931;SDS011;6025;51.368;6.788;2023-05-10T00:54:38;19.88;;;14.25;;
11931;SDS011;6025;51.368;6.788;2023-05-10T00:59:31;22.33;;;15.23;;
11931;SDS011;6025;51.368;6.788;2023-05-10T01:04:22;20.90;;;15.32;;
11931;SDS011;6025;51.368;6.788;2023-05-10T01:09:15;19.65;;;15.05;;
11931;SDS011;6025;51.368;6.788;2023-05-10T01:14:07;19.75;;;14.73;;
11931;SDS011;6025;51.368;6.788;2023-05-10T01:19:00;24.40;;;15.68;;
11931;SDS011;6025;51.368;6.788;2023-05-10T01:24:03;22.33;;;15.30;;
11931;SDS011;6025;51.368;6.788;2023-05-10T01:29:24;18.27;;;13.52;;
11931;SDS011;6025;51.368;6.788;2023-05-10T01:34:27;17.38;;;12.57;;
11931;SDS011;6025;51.368;6.788;2023-05-10T01:39:24;16.27;;;11.82;;
11931;SDS011;6025;51.368;6.788;2023-05-10T01:44:18;21.23;;;13.43;;
11931;SDS011;6025;51.368;6.788;2023-05-10T01:49:17;20.40;;;14.27;;
11931;SDS011;6025;51.368;6.788;2023-05-10T01:54:14;20.42;;;14.43;;
11931;SDS011;6025;51.368;6.788;2023-05-10T01:59:13;21.83;;;14.90;;
11931;SDS011;6025;51.368;6.788;2023-05-10T02:04:06;21.92;;;15.82;;
11931;SDS011;6025;51.368;6.788;2023-05-10T02:08:58;21.23;;;15.88;;
11931;SDS011;6025;51.368;6.788;2023-05-10T02:13:53;21.15;;;14.85;;
11931;SDS011;6025;51.368;6.788;2023-05-10T02:18:45;17.10;;;12.30;;
11931;SDS011;6025;51.368;6.788;2023-05-10T02:23:37;18.25;;;12.32;;
11931;SDS011;6025;51.368;6.788;2023-05-10T02:28:28;15.82;;;12.48;;
11931;SDS011;6025;51.368;6.788;2023-05-10T02:33:22;16.17;;;12.40;;
11931;SDS011;6025;51.368;6.788;2023-05-10T02:38:14;21.08;;;14.30;;
11931;SDS011;6025;51.368;6.788;2023-05-10T02:43:07;19.83;;;13.60;;
11931;SDS011;6025;51.368;6.788;2023-05-10T02:48:00;16.80;;;13.05;;
11931;SDS011;6025;51.368;6.788;2023-05-10T02:52:54;17.85;;;12.15;;
11931;SDS011;6025;51.368;6.788;2023-05-10T02:57:49;19.92;;;13.10;;
11931;SDS011;6025;51.368;6.788;2023-05-10T03:02:43;21.75;;;14.15;;
11931;SDS011;6025;51.368;6.788;2023-05-10T03:07:35;20.05;;;14.27;;
11931;SDS011;6025;51.368;6.788;2023-05-10T03:12:31;20.45;;;13.82;;
11931;SDS011;6025;51.368;6.788;2023-05-10T03:17:25;21.83;;;14.38;;
11931;SDS011;6025;51.368;6.788;2023-05-10T03:22:23;20.88;;;14.00;;
11931;SDS011;6025;51.368;6.788;2023-05-10T03:27:17;20.30;;;13.10;;
11931;SDS011;6025;51.368;6.788;2023-05-10T03:32:10;19.05;;;13.05;;
11931;SDS011;6025;51.368;6.788;2023-05-10T03:37:01;18.98;;;12.63;;
11931;SDS011;6025;51.368;6.788;2023-05-10T03:41:53;17.42;;;12.82;;
11931;SDS011;6025;51.368;6.788;2023-05-10T03:46:44;19.85;;;13.60;;
11931;SDS011;6025;51.368;6.788;2023-05-10T03:51:37;19.92;;;13.30;;
11931;SDS011;6025;51.368;6.788;2023-05-10T03:56:29;19.15;;;13.05;;
11931;SDS011;6025;51.368;6.788;2023-05-10T04:01:20;20.75;;;13.70;;
11931;SDS011;6025;51.368;6.788;2023-05-10T04:06:12;21.35;;;13.35;;
11931;SDS011;6025;51.368;6.788;2023-05-10T04:11:08;20.85;;;13.23;;
11931;SDS011;6025;51.368;6.788;2023-05-10T04:16:00;23.23;;;13.45;;
11931;SDS011;6025;51.368;6.788;2023-05-10T04:20:52;21.00;;;13.63;;
11931;SDS011;6025;51.368;6.788;2023-05-10T04:25:43;20.38;;;13.77;;
11931;SDS011;6025;51.368;6.788;2023-05-10T04:30:36;20.65;;;13.90;;
11931;SDS011;6025;51.368;6.788;2023-05-10T04:35:28;22.23;;;15.13;;
11931;SDS011;6025;51.368;6.788;2023-05-10T04:40:19;25.25;;;16.27;;
11931;SDS011;6025;51.368;6.788;2023-05-10T04:45:11;29.08;;;18.33;;
11931;SDS011;6025;51.368;6.788;2023-05-10T04:50:06;27.08;;;18.55;;
11931;SDS011;6025;51.368;6.788;2023-05-10T04:54:58;29.00;;;18.75;;
11931;SDS011;6025;51.368;6.788;2023-05-10T04:59:50;31.23;;;19.85;;
11931;SDS011;6025;51.368;6.788;2023-05-10T05:04:42;29.60;;;20.05;;
11931;SDS011;6025;51.368;6.788;2023-05-10T05:09:35;35.35;;;21.13;;
11931;SDS011;6025;51.368;6.788;2023-05-10T05:14:26;33.67;;;21.55;;
11931;SDS011;6025;51.368;6.788;2023-05-10T05:19:18;35.97;;;20.98;;
11931;SDS011;6025;51.368;6.788;2023-05-10T05:24:09;32.50;;;22.08;;
11931;SDS011;6025;51.368;6.788;2023-05-10T05:29:04;34.10;;;21.63;;
11931;SDS011;6025;51.368;6.788;2023-05-10T05:33:55;33.95;;;22.45;;
11931;SDS011;6025;51.368;6.788;2023-05-10T05:38:47;32.72;;;21.50;;
11931;SDS011;6025;51.368;6.788;2023-05-10T05:43:38;36.15;;;23.35;;
11931;SDS011;6025;51.368;6.788;2023-05-10T05:48:31;33.53;;;22.13;;
11931;SDS011;6025;51.368;6.788;2023-05-10T05:53:23;35.42;;;22.83;;
11931;SDS011;6025;51.368;6.788;2023-05-10T05:58:14;35.60;;;22.88;;
11931;SDS011;6025;51.368;6.788;2023-05-10T06:03:06;35.38;;;23.75;;
11931;SDS011;6025;51.368;6.788;2023-05-10T06:08:00;34.22;;;23.40;;
11931;SDS011;6025;51.368;6.788;2023-05-10T06:12:52;38.85;;;24.13;;
11931;SDS011;6025;51.368;6.788;2023-05-10T06:17:44;40.45;;;24.20;;
11931;SDS011;6025;51.368;6.788;2023-05-10T06:22:37;44.20;;;25.92;;
11931;SDS011;6025;51.368;6.788;2023-05-10T06:27:29;45.42;;;25.88;;
11931;SDS011;6025;51.368;6.788;2023-05-10T06:32:21;46.92;;;26.23;;
11931;SDS011;6025;51.368;6.788;2023-05-10T06:37:13;41.92;;;25.02;;
11931;SDS011;6025;51.368;6.788;2023-05-10T06:42:04;44.40;;;25.38;;
11931;SDS011;6025;51.368;6.788;2023-05-10T06:46:57;42.88;;;24.30;;
11931;SDS011;6025;51.368;6.788;2023-05-10T06:51:48;44.35;;;25.45;;
11931;SDS011;6025;51.368;6.788;2023-05-10T06:56:40;42.95;;;25.27;;
11931;SDS011;6025;51.368;6.788;2023-05-10T07:01:31;43.05;;;24.83;;
11931;SDS011;6025;51.368;6.788;2023-05-10T07:06:24;45.78;;;25.88;;
11931;SDS011;6025;51.368;6.788;2023-05-10T07:11:16;42.47;;;24.75;;
11931;SDS011;6025;51.368;6.788;2023-05-10T07:16:07;44.80;;;23.85;;
11931;SDS011;6025;51.368;6.788;2023-05-10T07:20:59;42.55;;;23.83;;
11931;SDS011;6025;51.368;6.788;2023-05-10T07:25:52;43.20;;;23.38;;
11931;SDS011;6025;51.368;6.788;2023-05-10T07:30:43;41.53;;;23.65;;
11931;SDS011;6025;51.368;6.788;2023-05-10T07:35:35;41.08;;;22.45;;
11931;SDS011;6025;51.368;6.788;2023-05-10T07:40:27;41.03;;;21.73;;
11931;SDS011;6025;51.368;6.788;2023-05-10T07:45:20;37.30;;;21.40;;
11931;SDS011;6025;51.368;6.788;2023-05-10T07:50:12;38.53;;;21.83;;
11931;SDS011;6025;51.368;6.788;2023-05-10T07:55:04;30.10;;;19.00;;
11931;SDS011;6025;51.368;6.788;2023-05-10T07:59:57;32.17;;;19.67;;
11931;SDS011;6025;51.368;6.788;2023-05-10T08:04:50;28.83;;;17.55;;
11931;SDS011;6025;51.368;6.788;2023-05-10T08:09:41;33.47;;;19.08;;
11931;SDS011;6025;51.368;6.788;2023-05-10T08:14:33;33.70;;;20.05;;
11931;SDS011;6025;51.368;6.788;2023-05-10T08:19:26;35.13;;;21.45;;
11931;SDS011;6025;51.368;6.788;2023-05-10T08:24:19;35.72;;;21.70;;
11931;SDS011;6025;51.368;6.788;2023-05-10T08:29:10;46.08;;;23.02;;
11931;SDS011;6025;51.368;6.788;2023-05-10T08:34:02;40.25;;;23.15;;
11931;SDS011;6025;51.368;6.788;2023-05-10T08:38:53;39.33;;;22.90;;
11931;SDS011;6025;51.368;6.788;2023-05-10T08:43:47;36.83;;;23.15;;
11931;SDS011;6025;51.368;6.788;2023-05-10T08:48:38;43.85;;;23.27;;
11931;SDS011;6025;51.368;6.788;2023-05-10T08:53:30;38.35;;;24.00;;
11931;SDS011;6025;51.368;6.788;2023-05-10T08:58:24;33.92;;;22.40;;
11931;SDS011;6025;51.368;6.788;2023-05-10T09:03:17;34.08;;;21.42;;
11931;SDS011;6025;51.368;6.788;2023-05-10T09:08:09;32.45;;;20.98;;
11931;SDS011;6025;51.368;6.788;2023-05-10T09:13:01;35.10;;;21.52;;
11931;SDS011;6025;51.368;6.788;2023-05-10T09:17:54;31.00;;;19.67;;
11931;SDS011;6025;51.368;6.788;2023-05-10T09:22:47;26.83;;;17.85;;
11931;SDS011;6025;51.368;6.788;2023-05-10T09:27:39;27.08;;;17.50;;
11931;SDS011;6025;51.368;6.788;2023-05-10T09:32:37;25.02;;;16.70;;
11931;SDS011;6025;51.368;6.788;2023-05-10T09:37:29;23.20;;;15.60;;
11931;SDS011;6025;51.368;6.788;2023-05-10T09:42:22;20.83;;;14.60;;
11931;SDS011;6025;51.368;6.788;2023-05-10T09:47:16;24.27;;;16.25;;
11931;SDS011;6025;51.368;6.788;2023-05-10T09:52:08;19.95;;;14.20;;
11931;SDS011;6025;51.368;6.788;2023-05-10T09:57:00;21.67;;;14.23;;
11931;SDS011;6025;51.368;6.788;2023-05-10T10:01:53;22.65;;;13.80;;
11931;SDS011;6025;51.368;6.788;2023-05-10T10:06:47;18.25;;;13.55;;
11931;SDS011;6025;51.368;6.788;2023-05-10T10:11:49;17.80;;;13.55;;
11931;SDS011;6025;51.368;6.788;2023-05-10T10:16:41;20.15;;;14.02;;
11931;SDS011;6025;51.368;6.788;2023-05-10T10:21:34;25.02;;;17.35;;
11931;SDS011;6025;51.368;6.788;2023-05-10T10:26:25;24.05;;;16.42;;
11931;SDS011;6025;51.368;6.788;2023-05-10T10:31:18;19.52;;;14.38;;
11931;SDS011;6025;51.368;6.788;2023-05-10T10:36:15;19.60;;;13.10;;
11931;SDS011;6025;51.368;6.788;2023-05-10T10:41:12;19.58;;;13.18;;
11931;SDS011;6025;51.368;6.788;2023-05-10T10:46:19;17.70;;;12.57;;
11931;SDS011;6025;51.368;6.788;2023-05-10T10:51:11;17.77;;;12.57;;
11931;SDS011;6025;51.368;6.788;2023-05-10T10:56:04;19.80;;;12.23;;
11931;SDS011;6025;51.368;6.788;2023-05-10T11:01:13;14.85;;;10.90;;
11931;SDS011;6025;51.368;6.788;2023-05-10T11:06:06;13.80;;;10.10;;
11931;SDS011;6025;51.368;6.788;2023-05-10T11:11:02;16.00;;;10.82;;
11931;SDS011;6025;51.368;6.788;2023-05-10T11:15:58;12.68;;;10.18;;
11931;SDS011;6025;51.368;6.788;2023-05-10T11:20:51;15.45;;;10.10;;
11931;SDS011;6025;51.368;6.788;2023-05-10T11:25:44;13.13;;;9.98;;
11931;SDS011;6025;51.368;6.788;2023-05-10T11:30:36;12.55;;;10.45;;
11931;SDS011;6025;51.368;6.788;2023-05-10T11:35:29;14.05;;;10.55;;
11931;SDS011;6025;51.368;6.788;2023-05-10T11:40:22;12.75;;;10.52;;
11931;SDS011;6025;51.368;6.788;2023-05-10T11:45:14;12.85;;;10.45;;
11931;SDS011;6025;51.368;6.788;2023-05-10T11:50:06;11.55;;;9.98;;
11931;SDS011;6025;51.368;6.788;2023-05-10T11:54:58;14.13;;;10.73;;
11931;SDS011;6025;51.368;6.788;2023-05-10T11:59:54;11.57;;;9.23;;
11931;SDS011;6025;51.368;6.788;2023-05-10T12:04:45;9.25;;;8.15;;
11931;SDS011;6025;51.368;6.788;2023-05-10T12:09:41;10.55;;;8.18;;
11931;SDS011;6025;51.368;6.788;2023-05-10T12:14:34;9.57;;;8.10;;
11931;SDS011;6025;51.368;6.788;2023-05-10T12:19:27;9.80;;;8.52;;
11931;SDS011;6025;51.368;6.788;2023-05-10T12:24:18;11.38;;;9.23;;
11931;SDS011;6025;51.368;6.788;2023-05-10T12:29:11;11.05;;;8.43;;
11931;SDS011;6025;51.368;6.788;2023-05-10T12:34:04;11.70;;;8.30;;
11931;SDS011;6025;51.368;6.788;2023-05-10T12:39:02;10.65;;;8.43;;
11931;SDS011;6025;51.368;6.788;2023-05-10T12:43:54;10.10;;;8.45;;
11931;SDS011;6025;51.368;6.788;2023-05-10T12:48:46;9.38;;;7.90;;
11931;SDS011;6025;51.368;6.788;2023-05-10T12:53:42;11.95;;;7.72;;
11931;SDS011;6025;51.368;6.788;2023-05-10T12:58:37;7.72;;;6.78;;
11931;SDS011;6025;51.368;6.788;2023-05-10T13:03:29;8.27;;;6.85;;
11931;SDS011;6025;51.368;6.788;2023-05-10T13:08:21;7.70;;;6.75;;
11931;SDS011;6025;51.368;6.788;2023-05-10T13:13:12;9.73;;;6.90;;
11931;SDS011;6025;51.368;6.788;2023-05-10T13:18:05;9.23;;;7.53;;
11931;SDS011;6025;51.368;6.788;2023-05-10T13:22:57;11.40;;;7.93;;
11931;SDS011;6025;51.368;6.788;2023-05-10T13:27:48;11.52;;;9.77;;
11931;SDS011;6025;51.368;6.788;2023-05-10T13:32:40;12.48;;;10.10;;
11931;SDS011;6025;51.368;6.788;2023-05-10T13:37:32;10.18;;;9.18;;
11931;SDS011;6025;51.368;6.788;2023-05-10T13:42:27;12.32;;;10.98;;
11931;SDS011;6025;51.368;6.788;2023-05-10T13:47:18;12.68;;;9.77;;
11931;SDS011;6025;51.368;6.788;2023-05-10T13:52:11;15.57;;;11.48;;
11931;SDS011;6025;51.368;6.788;2023-05-10T13:57:05;11.60;;;10.43;;
11931;SDS011;6025;51.368;6.788;2023-05-10T14:01:56;14.27;;;10.85;;
11931;SDS011;6025;51.368;6.788;2023-05-10T14:06:48;12.30;;;10.38;;
11931;SDS011;6025;51.368;6.788;2023-05-10T14:11:39;13.23;;;10.65;;
11931;SDS011;6025;51.368;6.788;2023-05-10T14:16:34;13.13;;;10.80;;
11931;SDS011;6025;51.368;6.788;2023-05-10T14:21:26;13.82;;;12.43;;
11931;SDS011;6025;51.368;6.788;2023-05-10T14:26:18;14.05;;;12.65;;
11931;SDS011;6025;51.368;6.788;2023-05-10T14:31:10;14.00;;;12.50;;
11931;SDS011;6025;51.368;6.788;2023-05-10T14:36:04;14.63;;;13.02;;
11931;SDS011;6025;51.368;6.788;2023-05-10T14:40:56;14.90;;;13.30;;
11931;SDS011;6025;51.368;6.788;2023-05-10T14:45:47;14.60;;;13.05;;
11931;SDS011;6025;51.368;6.788;2023-05-10T14:50:39;12.65;;;11.38;;
11931;SDS011;6025;51.368;6.788;2023-05-10T14:55:32;14.52;;;13.13;;
11931;SDS011;6025;51.368;6.788;2023-05-10T15:00:24;13.63;;;12.10;;
11931;SDS011;6025;51.368;6.788;2023-05-10T15:05:16;13.60;;;12.25;;
11931;SDS011;6025;51.368;6.788;2023-05-10T15:10:08;11.57;;;10.38;;
11931;SDS011;6025;51.368;6.788;2023-05-10T15:15:05;13.35;;;10.00;;
11931;SDS011;6025;51.368;6.788;2023-05-10T15:19:58;9.60;;;8.70;;
11931;SDS011;6025;51.368;6.788;2023-05-10T15:24:49;10.80;;;9.70;;
11931;SDS011;6025;51.368;6.788;2023-05-10T15:29:41;9.48;;;7.85;;
11931;SDS011;6025;51.368;6.788;2023-05-10T15:34:34;9.63;;;8.63;;
11931;SDS011;6025;51.368;6.788;2023-05-10T15:39:26;7.32;;;6.60;;
11931;SDS011;6025;51.368;6.788;2023-05-10T15:44:17;4.00;;;3.03;;
11931;SDS011;6025;51.368;6.788;2023-05-10T15:49:09;8.10;;;2.90;;
11931;SDS011;6025;51.368;6.788;2023-05-10T15:54:02;2.50;;;1.90;;
11931;SDS011;6025;51.368;6.788;2023-05-10T15:58:56;2.60;;;2.20;;
11931;SDS011;6025;51.368;6.788;2023-05-10T16:03:47;3.70;;;2.63;;
11931;SDS011;6025;51.368;6.788;2023-05-10T16:08:39;9.20;;;3.97;;
11931;SDS011;6025;51.368;6.788;2023-05-10T16:13:32;7.13;;;3.80;;
11931;SDS011;6025;51.368;6.788;2023-05-10T16:18:24;6.38;;;3.70;;
11931;SDS011;6025;51.368;6.788;2023-05-10T16:23:16;4.88;;;3.10;;
11931;SDS011;6025;51.368;6.788;2023-05-10T16:28:07;3.08;;;2.72;;
11931;SDS011;6025;51.368;6.788;2023-05-10T16:33:06;4.75;;;3.25;;
11931;SDS011;6025;51.368;6.788;2023-05-10T16:37:58;3.85;;;3.03;;
11931;SDS011;6025;51.368;6.788;2023-05-10T16:42:50;2.83;;;2.63;;
11931;SDS011;6025;51.368;6.788;2023-05-10T16:47:42;5.72;;;2.95;;
11931;SDS011;6025;51.368;6.788;2023-05-10T16:52:35;5.72;;;4.22;;
11931;SDS011;6025;51.368;6.788;2023-05-10T16:57:27;6.95;;;4.93;;
11931;SDS011;6025;51.368;6.788;2023-05-10T17:02:19;8.15;;;5.40;;
11931;SDS011;6025;51.368;6.788;2023-05-10T17:07:11;6.53;;;5.00;;
11931;SDS011;6025;51.368;6.788;2023-05-10T17:12:09;6.68;;;5.55;;
11931;SDS011;6025;51.368;6.788;2023-05-10T17:17:04;6.53;;;5.60;;
11931;SDS011;6025;51.368;6.788;2023-05-10T17:21:56;7.25;;;5.70;;
11931;SDS011;6025;51.368;6.788;2023-05-10T17:26:50;6.20;;;5.20;;
11931;SDS011;6025;51.368;6.788;2023-05-10T17:31:47;4.30;;;3.47;;
11931;SDS011;6025;51.368;6.788;2023-05-10T17:36:39;2.95;;;2.35;;
11931;SDS011;6025;51.368;6.788;2023-05-10T17:41:31;2.30;;;2.10;;
11931;SDS011;6025;51.368;6.788;2023-05-10T17:46:31;2.65;;;2.45;;
11931;SDS011;6025;51.368;6.788;2023-05-10T17:51:25;3.17;;;2.88;;
11931;SDS011;6025;51.368;6.788;2023-05-10T17:56:22;4.30;;;3.60;;
11931;SDS011;6025;51.368;6.788;2023-05-10T18:01:22;4.03;;;3.63;;
11931;SDS011;6025;51.368;6.788;2023-05-10T18:06:13;4.07;;;3.67;;
11931;SDS011;6025;51.368;6.788;2023-05-10T18:11:07;5.75;;;3.95;;
11931;SDS011;6025;51.368;6.788;2023-05-10T18:15:58;5.30;;;3.92;;
11931;SDS011;6025;51.368;6.788;2023-05-10T18:20:50;5.78;;;5.18;;
11931;SDS011;6025;51.368;6.788;2023-05-10T18:25:45;6.50;;;5.30;;
11931;SDS011;6025;51.368;6.788;2023-05-10T18:30:39;6.35;;;5.75;;
11931;SDS011;6025;51.368;6.788;2023-05-10T18:35:30;8.52;;;6.68;;
11931;SDS011;6025;51.368;6.788;2023-05-10T18:40:24;6.97;;;6.18;;
11931;SDS011;6025;51.368;6.788;2023-05-10T18:45:17;8.10;;;6.93;;
11931;SDS011;6025;51.368;6.788;2023-05-10T18:50:10;8.63;;;6.93;;
11931;SDS011;6025;51.368;6.788;2023-05-10T18:55:03;8.48;;;7.00;;
11931;SDS011;6025;51.368;6.788;2023-05-10T18:59:55;10.30;;;8.45;;
11931;SDS011;6025;51.368;6.788;2023-05-10T19:04:46;13.43;;;8.95;;
11931;SDS011;6025;51.368;6.788;2023-05-10T19:09:39;9.40;;;8.43;;
11931;SDS011;6025;51.368;6.788;2023-05-10T19:14:30;8.88;;;6.68;;
11931;SDS011;6025;51.368;6.788;2023-05-10T19:19:22;8.82;;;6.93;;
11931;SDS011;6025;51.368;6.788;2023-05-10T19:24:13;9.23;;;7.32;;
11931;SDS011;6025;51.368;6.788;2023-05-10T19:29:06;8.30;;;7.50;;
11931;SDS011;6025;51.368;6.788;2023-05-10T19:33:58;8.32;;;7.53;;
11931;SDS011;6025;51.368;6.788;2023-05-10T19:38:49;8.80;;;7.38;;
11931;SDS011;6025;51.368;6.788;2023-05-10T19:43:41;8.35;;;7.50;;
11931;SDS011;6025;51.368;6.788;2023-05-10T19:48:34;10.43;;;8.48;;
11931;SDS011;6025;51.368;6.788;2023-05-10T19:53:25;9.18;;;8.15;;
11931;SDS011;6025;51.368;6.788;2023-05-10T19:58:17;9.35;;;8.27;;
11931;SDS011;6025;51.368;6.788;2023-05-10T20:03:09;10.43;;;8.98;;
11931;SDS011;6025;51.368;6.788;2023-05-10T20:08:01;11.70;;;8.60;;
11931;SDS011;6025;51.368;6.788;2023-05-10T20:12:53;9.07;;;8.18;;
11931;SDS011;6025;51.368;6.788;2023-05-10T20:17:44;9.38;;;8.18;;
11931;SDS011;6025;51.368;6.788;2023-05-10T20:22:36;8.95;;;8.02;;
11931;SDS011;6025;51.368;6.788;2023-05-10T20:27:29;9.82;;;8.73;;
11931;SDS011;6025;51.368;6.788;2023-05-10T20:32:21;9.85;;;8.85;;
11931;SDS011;6025;51.368;6.788;2023-05-10T20:37:12;11.10;;;8.18;;
11931;SDS011;6025;51.368;6.788;2023-05-10T20:42:04;9.38;;;8.38;;
11931;SDS011;6025;51.368;6.788;2023-05-10T20:46:57;9.73;;;8.73;;
11931;SDS011;6025;51.368;6.788;2023-05-10T20:51:48;11.65;;;9.00;;
11931;SDS011;6025;51.368;6.788;2023-05-10T20:56:40;12.68;;;11.38;;
11931;SDS011;6025;51.368;6.788;2023-05-10T21:01:31;13.00;;;9.77;;
11931;SDS011;6025;51.368;6.788;2023-05-10T21:06:24;13.68;;;10.85;;
11931;SDS011;6025;51.368;6.788;2023-05-10T21:11:16;13.15;;;11.38;;
11931;SDS011;6025;51.368;6.788;2023-05-10T21:16:07;14.27;;;11.40;;
11931;SDS011;6025;51.368;6.788;2023-05-10T21:20:59;12.63;;;10.45;;
11931;SDS011;6025;51.368;6.788;2023-05-10T21:25:52;11.98;;;10.43;;
11931;SDS011;6025;51.368;6.788;2023-05-10T21:30:43;11.10;;;9.82;;
11931;SDS011;6025;51.368;6.788;2023-05-10T21:35:35;11.95;;;9.02;;
11931;SDS011;6025;51.368;6.788;2023-05-10T21:40:28;13.00;;;9.90;;
11931;SDS011;6025;51.368;6.788;2023-05-10T21:45:21;11.68;;;9.82;;
11931;SDS011;6025;51.368;6.788;2023-05-10T21:50:12;11.05;;;9.82;;
11931;SDS011;6025;51.368;6.788;2023-05-10T21:55:04;10.68;;;9.45;;
11931;SDS011;6025;51.368;6.788;2023-05-10T21:59:57;11.13;;;10.02;;
11931;SDS011;6025;51.368;6.788;2023-05-10T22:04:50;15.10;;;10.50;;
11931;SDS011;6025;51.368;6.788;2023-05-10T22:09:41;11.30;;;10.20;;
11931;SDS011;6025;51.368;6.788;2023-05-10T22:14:33;13.00;;;10.25;;
11931;SDS011;6025;51.368;6.788;2023-05-10T22:19:25;13.93;;;11.98;;
11931;SDS011;6025;51.368;6.788;2023-05-10T22:24:17;13.80;;;12.13;;
11931;SDS011;6025;51.368;6.788;2023-05-10T22:29:09;12.90;;;11.05;;
11931;SDS011;6025;51.368;6.788;2023-05-10T22:34:01;12.52;;;11.00;;
11931;SDS011;6025;51.368;6.788;2023-05-10T22:38:52;13.00;;;11.27;;
11931;SDS011;6025;51.368;6.788;2023-05-10T22:43:45;12.00;;;10.50;;
11931;SDS011;6025;51.368;6.788;2023-05-10T22:48:36;14.63;;;12.18;;
11931;SDS011;6025;51.368;6.788;2023-05-10T22:53:28;14.50;;;12.18;;
11931;SDS011;6025;51.368;6.788;2023-05-10T22:58:20;16.25;;;11.13;;
11931;SDS011;6025;51.368;6.788;2023-05-10T23:03:12;15.00;;;11.70;;
11931;SDS011;6025;51.368;6.788;2023-05-10T23:08:05;14.48;;;11.80;;
11931;SDS011;6025;51.368;6.788;2023-05-10T23:12:56;13.38;;;11.98;;
11931;SDS011;6025;51.368;6.788;2023-05-10T23:17:48;14.85;;;10.75;;
11931;SDS011;6025;51.368;6.788;2023-05-10T23:22:41;13.50;;;11.93;;
11931;SDS011;6025;51.368;6.788;2023-05-10T23:27:32;16.30;;;11.45;;
11931;SDS011;6025;51.368;6.788;2023-05-10T23:32:24;13.57;;;11.70;;
11931;SDS011;6025;51.368;6.788;2023-05-10T23:37:15;13.23;;;11.52;;
11931;SDS011;6025;51.368;6.788;2023-05-10T23:42:08;15.15;;;11.82;;
11931;SDS011;6025;51.368;6.788;2023-05-10T23:47:00;14.98;;;11.75;;
11931;SDS011;6025;51.368;6.788;2023-05-10T23:51:51;14.40;;;11.43;;
11931;SDS011;6025;51.368;6.788;2023-05-10T23:56:43;14.32;;;12.38;;
